sensor_id;sensor_type;location;lat;lon;timestamp;pressure;altitude;pressure_sealevel;temperature;humidity
71476;BME280;59286;59.274;17.974;2023-07-20T00:02:05;99846.56;;;12.73;79.85
71476;BME280;59286;59.274;17.974;2023-07-20T00:04:32;99854.25;;;12.78;79.88
71476;BME280;59286;59.274;17.974;2023-07-20T00:06:58;99841.50;;;12.68;80.27
71476;BME280;59286;59.274;17.974;2023-07-20T00:09:26;99847.66;;;12.72;80.12
71476;BME280;59286;59.274;17.974;2023-07-20T00:11:52;99834.06;;;12.70;80.84
71476;BME280;59286;59.274;17.974;2023-07-20T00:14:18;99832.75;;;12.64;80.83
71476;BME280;59286;59.274;17.974;2023-07-20T00:16:45;99836.13;;;12.64;81.10
71476;BME280;59286;59.274;17.974;2023-07-20T00:19:12;99829.22;;;12.60;81.32
71476;BME280;59286;59.274;17.974;2023-07-20T00:21:37;99818.91;;;12.55;81.42
71476;BME280;59286;59.274;17.974;2023-07-20T00:24:05;99813.22;;;12.53;81.52
71476;BME280;59286;59.274;17.974;2023-07-20T00:26:31;99827.78;;;12.62;81.68
71476;BME280;59286;59.274;17.974;2023-07-20T00:28:56;99830.19;;;12.55;81.33
71476;BME280;59286;59.274;17.974;2023-07-20T00:31:22;99824.16;;;12.55;81.96
71476;BME280;59286;59.274;17.974;2023-07-20T00:33:47;99830.75;;;12.61;82.26
71476;BME280;59286;59.274;17.974;2023-07-20T00:36:13;99826.16;;;12.58;82.27
71476;BME280;59286;59.274;17.974;2023-07-20T00:38:38;99829.88;;;12.57;82.16
71476;BME280;59286;59.274;17.974;2023-07-20T00:41:04;99835.91;;;12.57;82.40
71476;BME280;59286;59.274;17.974;2023-07-20T00:43:29;99814.09;;;12.45;82.42
71476;BME280;59286;59.274;17.974;2023-07-20T00:45:55;99834.38;;;12.56;82.42
71476;BME280;59286;59.274;17.974;2023-07-20T00:48:21;99811.66;;;12.40;82.79
71476;BME280;59286;59.274;17.974;2023-07-20T00:50:46;99828.78;;;12.58;83.03
71476;BME280;59286;59.274;17.974;2023-07-20T00:53:13;99838.31;;;12.62;82.75
71476;BME280;59286;59.274;17.974;2023-07-20T00:55:40;99841.59;;;12.59;82.78
71476;BME280;59286;59.274;17.974;2023-07-20T00:58:05;99807.38;;;12.35;82.84
71476;BME280;59286;59.274;17.974;2023-07-20T01:00:31;99805.97;;;12.38;82.71
71476;BME280;59286;59.274;17.974;2023-07-20T01:02:56;99837.97;;;12.52;83.45
71476;BME280;59286;59.274;17.974;2023-07-20T01:05:28;99824.66;;;12.36;83.30
71476;BME280;59286;59.274;17.974;2023-07-20T01:08:04;99834.66;;;12.43;83.68
71476;BME280;59286;59.274;17.974;2023-07-20T01:13:01;99818.41;;;12.29;83.69
71476;BME280;59286;59.274;17.974;2023-07-20T01:15:27;99841.31;;;12.40;84.34
71476;BME280;59286;59.274;17.974;2023-07-20T01:17:52;99840.44;;;12.36;84.60
71476;BME280;59286;59.274;17.974;2023-07-20T01:20:20;99838.25;;;12.38;84.42
71476;BME280;59286;59.274;17.974;2023-07-20T01:25:55;99836.84;;;12.41;84.36
71476;BME280;59286;59.274;17.974;2023-07-20T01:31:25;99832.53;;;12.24;84.97
71476;BME280;59286;59.274;17.974;2023-07-20T01:33:55;99833.47;;;12.20;85.54
71476;BME280;59286;59.274;17.974;2023-07-20T01:36:23;99827.97;;;12.13;85.79
71476;BME280;59286;59.274;17.974;2023-07-20T01:38:51;99836.75;;;12.17;85.36
71476;BME280;59286;59.274;17.974;2023-07-20T01:41:17;99831.72;;;12.12;86.01
71476;BME280;59286;59.274;17.974;2023-07-20T01:43:43;99834.78;;;12.14;85.77
71476;BME280;59286;59.274;17.974;2023-07-20T01:46:08;99828.31;;;12.11;86.07
71476;BME280;59286;59.274;17.974;2023-07-20T01:48:34;99836.41;;;12.06;86.27
71476;BME280;59286;59.274;17.974;2023-07-20T01:50:59;99835.41;;;12.11;86.64
71476;BME280;59286;59.274;17.974;2023-07-20T01:53:24;99830.38;;;12.06;87.47
71476;BME280;59286;59.274;17.974;2023-07-20T01:55:52;99833.00;;;12.06;87.46
71476;BME280;59286;59.274;17.974;2023-07-20T01:58:19;99820.38;;;11.99;87.20
71476;BME280;59286;59.274;17.974;2023-07-20T02:00:44;99822.53;;;11.97;88.62
71476;BME280;59286;59.274;17.974;2023-07-20T02:03:09;99824.09;;;11.98;88.35
71476;BME280;59286;59.274;17.974;2023-07-20T02:05:37;99818.50;;;12.00;88.27
71476;BME280;59286;59.274;17.974;2023-07-20T02:08:02;99816.53;;;11.97;88.33
71476;BME280;59286;59.274;17.974;2023-07-20T02:10:27;99809.84;;;11.99;88.29
71476;BME280;59286;59.274;17.974;2023-07-20T02:12:53;99812.03;;;11.97;88.39
71476;BME280;59286;59.274;17.974;2023-07-20T02:15:18;99821.59;;;12.02;87.95
71476;BME280;59286;59.274;17.974;2023-07-20T02:17:44;99816.53;;;11.97;89.06
71476;BME280;59286;59.274;17.974;2023-07-20T02:20:10;99819.50;;;11.95;89.30
71476;BME280;59286;59.274;17.974;2023-07-20T02:22:36;99815.78;;;11.96;89.24
71476;BME280;59286;59.274;17.974;2023-07-20T02:25:04;99814.03;;;12.00;88.89
71476;BME280;59286;59.274;17.974;2023-07-20T02:27:29;99778.38;;;11.79;88.63
71476;BME280;59286;59.274;17.974;2023-07-20T02:29:56;99824.53;;;12.00;89.09
71476;BME280;59286;59.274;17.974;2023-07-20T02:32:21;99830.25;;;12.02;89.68
71476;BME280;59286;59.274;17.974;2023-07-20T02:34:46;99807.66;;;11.89;89.18
71476;BME280;59286;59.274;17.974;2023-07-20T02:37:12;99812.31;;;12.04;89.12
71476;BME280;59286;59.274;17.974;2023-07-20T02:39:38;99811.53;;;12.04;88.53
71476;BME280;59286;59.274;17.974;2023-07-20T02:42:04;99812.63;;;12.03;88.97
71476;BME280;59286;59.274;17.974;2023-07-20T02:44:29;99793.09;;;11.92;88.83
71476;BME280;59286;59.274;17.974;2023-07-20T02:46:55;99792.78;;;11.93;88.72
71476;BME280;59286;59.274;17.974;2023-07-20T02:49:20;99817.56;;;12.04;89.60
71476;BME280;59286;59.274;17.974;2023-07-20T02:51:46;99810.63;;;12.00;89.91
71476;BME280;59286;59.274;17.974;2023-07-20T02:54:11;99827.53;;;12.11;89.83
71476;BME280;59286;59.274;17.974;2023-07-20T02:56:39;99813.94;;;12.09;90.35
71476;BME280;59286;59.274;17.974;2023-07-20T02:59:04;99779.94;;;11.92;89.97
71476;BME280;59286;59.274;17.974;2023-07-20T03:01:30;99819.03;;;12.14;89.88
71476;BME280;59286;59.274;17.974;2023-07-20T03:03:55;99792.25;;;12.00;90.22
71476;BME280;59286;59.274;17.974;2023-07-20T03:06:21;99809.09;;;12.19;90.05
71476;BME280;59286;59.274;17.974;2023-07-20T03:08:47;99785.19;;;12.12;90.17
71476;BME280;59286;59.274;17.974;2023-07-20T03:11:14;99799.44;;;12.23;89.95
71476;BME280;59286;59.274;17.974;2023-07-20T03:13:40;99807.25;;;12.32;89.65
71476;BME280;59286;59.274;17.974;2023-07-20T03:16:06;99808.38;;;12.43;89.44
71476;BME280;59286;59.274;17.974;2023-07-20T03:18:39;99808.16;;;12.48;89.38
71476;BME280;59286;59.274;17.974;2023-07-20T03:21:05;99817.72;;;12.64;89.21
71476;BME280;59286;59.274;17.974;2023-07-20T03:23:31;99822.22;;;12.64;89.22
71476;BME280;59286;59.274;17.974;2023-07-20T03:25:56;99811.06;;;12.67;88.52
71476;BME280;59286;59.274;17.974;2023-07-20T03:28:22;99800.09;;;12.65;88.63
71476;BME280;59286;59.274;17.974;2023-07-20T03:30:55;99810.94;;;12.76;88.32
71476;BME280;59286;59.274;17.974;2023-07-20T03:33:29;99819.38;;;12.81;88.36
71476;BME280;59286;59.274;17.974;2023-07-20T03:35:55;99821.25;;;12.93;88.46
71476;BME280;59286;59.274;17.974;2023-07-20T03:38:21;99814.03;;;13.02;88.18
71476;BME280;59286;59.274;17.974;2023-07-20T03:40:51;99817.91;;;13.04;87.92
71476;BME280;59286;59.274;17.974;2023-07-20T03:43:16;99815.94;;;13.13;87.78
71476;BME280;59286;59.274;17.974;2023-07-20T03:45:42;99808.47;;;13.15;87.41
71476;BME280;59286;59.274;17.974;2023-07-20T03:48:07;99815.94;;;13.25;87.29
71476;BME280;59286;59.274;17.974;2023-07-20T03:50:32;99811.66;;;13.21;87.35
71476;BME280;59286;59.274;17.974;2023-07-20T03:52:58;99811.84;;;13.28;87.04
71476;BME280;59286;59.274;17.974;2023-07-20T03:55:23;99822.94;;;13.33;86.99
71476;BME280;59286;59.274;17.974;2023-07-20T03:57:48;99818.09;;;13.35;86.52
71476;BME280;59286;59.274;17.974;2023-07-20T04:00:16;99822.06;;;13.41;86.63
71476;BME280;59286;59.274;17.974;2023-07-20T04:02:42;99835.53;;;13.52;86.24
71476;BME280;59286;59.274;17.974;2023-07-20T04:05:07;99834.97;;;13.58;86.47
71476;BME280;59286;59.274;17.974;2023-07-20T04:07:33;99840.00;;;13.63;86.46
71476;BME280;59286;59.274;17.974;2023-07-20T04:09:58;99804.94;;;13.47;85.69
71476;BME280;59286;59.274;17.974;2023-07-20T04:12:23;99831.66;;;13.74;85.88
71476;BME280;59286;59.274;17.974;2023-07-20T04:14:49;99817.19;;;13.68;85.76
71476;BME280;59286;59.274;17.974;2023-07-20T04:17:14;99811.56;;;13.69;86.01
71476;BME280;59286;59.274;17.974;2023-07-20T04:19:39;99824.22;;;13.91;85.58
71476;BME280;59286;59.274;17.974;2023-07-20T04:22:05;99825.63;;;14.01;84.96
71476;BME280;59286;59.274;17.974;2023-07-20T04:24:30;99825.50;;;14.09;84.86
71476;BME280;59286;59.274;17.974;2023-07-20T04:26:55;99821.66;;;14.07;84.94
71476;BME280;59286;59.274;17.974;2023-07-20T04:29:21;99810.44;;;14.10;85.03
71476;BME280;59286;59.274;17.974;2023-07-20T04:31:46;99801.44;;;14.11;84.06
71476;BME280;59286;59.274;17.974;2023-07-20T04:34:11;99829.94;;;14.33;83.54
71476;BME280;59286;59.274;17.974;2023-07-20T04:36:37;99802.69;;;14.29;83.44
71476;BME280;59286;59.274;17.974;2023-07-20T04:39:03;99822.47;;;14.66;82.85
71476;BME280;59286;59.274;17.974;2023-07-20T04:41:29;99814.56;;;14.66;82.22
71476;BME280;59286;59.274;17.974;2023-07-20T04:43:55;99819.00;;;14.78;82.54
71476;BME280;59286;59.274;17.974;2023-07-20T04:46:20;99819.25;;;14.88;82.01
71476;BME280;59286;59.274;17.974;2023-07-20T04:48:46;99798.66;;;14.78;81.50
71476;BME280;59286;59.274;17.974;2023-07-20T04:51:13;99817.13;;;15.09;81.21
71476;BME280;59286;59.274;17.974;2023-07-20T04:53:38;99816.09;;;15.14;80.80
71476;BME280;59286;59.274;17.974;2023-07-20T04:56:03;99820.84;;;15.24;80.71
71476;BME280;59286;59.274;17.974;2023-07-20T04:58:29;99808.13;;;15.29;80.46
71476;BME280;59286;59.274;17.974;2023-07-20T05:00:54;99791.88;;;15.27;80.70
71476;BME280;59286;59.274;17.974;2023-07-20T05:03:20;99813.84;;;15.47;79.68
71476;BME280;59286;59.274;17.974;2023-07-20T05:05:47;99821.72;;;15.63;79.57
71476;BME280;59286;59.274;17.974;2023-07-20T05:08:13;99822.34;;;15.75;78.56
71476;BME280;59286;59.274;17.974;2023-07-20T05:10:38;99809.06;;;15.72;77.75
71476;BME280;59286;59.274;17.974;2023-07-20T05:13:04;99801.56;;;15.74;78.94
71476;BME280;59286;59.274;17.974;2023-07-20T05:15:29;99806.69;;;16.05;76.73
71476;BME280;59286;59.274;17.974;2023-07-20T05:17:55;99814.63;;;16.24;77.16
71476;BME280;59286;59.274;17.974;2023-07-20T05:20:20;99809.34;;;16.24;75.96
71476;BME280;59286;59.274;17.974;2023-07-20T05:22:46;99815.38;;;16.24;75.54
71476;BME280;59286;59.274;17.974;2023-07-20T05:25:11;99815.84;;;16.30;75.57
71476;BME280;59286;59.274;17.974;2023-07-20T05:27:37;99810.63;;;16.33;76.23
71476;BME280;59286;59.274;17.974;2023-07-20T05:30:04;99805.38;;;16.56;76.08
71476;BME280;59286;59.274;17.974;2023-07-20T05:32:29;99811.28;;;16.69;75.58
71476;BME280;59286;59.274;17.974;2023-07-20T05:34:55;99824.09;;;16.89;74.36
71476;BME280;59286;59.274;17.974;2023-07-20T05:37:20;99818.84;;;16.93;74.05
71476;BME280;59286;59.274;17.974;2023-07-20T05:39:46;99807.13;;;16.94;74.60
71476;BME280;59286;59.274;17.974;2023-07-20T05:42:11;99810.69;;;17.05;73.04
71476;BME280;59286;59.274;17.974;2023-07-20T05:44:37;99814.94;;;17.09;73.71
71476;BME280;59286;59.274;17.974;2023-07-20T05:47:02;99801.88;;;17.23;73.44
71476;BME280;59286;59.274;17.974;2023-07-20T05:49:28;99822.69;;;17.48;73.38
71476;BME280;59286;59.274;17.974;2023-07-20T05:51:56;99817.09;;;17.53;71.66
71476;BME280;59286;59.274;17.974;2023-07-20T05:54:24;99815.22;;;17.57;72.06
71476;BME280;59286;59.274;17.974;2023-07-20T05:56:49;99809.19;;;17.56;70.86
71476;BME280;59286;59.274;17.974;2023-07-20T05:59:15;99829.09;;;17.73;71.35
71476;BME280;59286;59.274;17.974;2023-07-20T06:01:41;99819.28;;;17.77;71.29
71476;BME280;59286;59.274;17.974;2023-07-20T06:04:06;99819.38;;;17.84;71.04
71476;BME280;59286;59.274;17.974;2023-07-20T06:06:32;99817.63;;;17.98;70.23
71476;BME280;59286;59.274;17.974;2023-07-20T06:08:57;99819.28;;;18.10;69.25
71476;BME280;59286;59.274;17.974;2023-07-20T06:11:22;99813.72;;;18.22;68.48
71476;BME280;59286;59.274;17.974;2023-07-20T06:13:48;99818.50;;;18.43;68.17
71476;BME280;59286;59.274;17.974;2023-07-20T06:16:13;99814.94;;;18.65;68.06
71476;BME280;59286;59.274;17.974;2023-07-20T06:18:38;99810.47;;;18.76;69.61
71476;BME280;59286;59.274;17.974;2023-07-20T06:21:04;99809.66;;;18.68;67.00
71476;BME280;59286;59.274;17.974;2023-07-20T06:23:30;99813.59;;;18.88;68.08
71476;BME280;59286;59.274;17.974;2023-07-20T06:25:55;99809.16;;;19.03;67.97
71476;BME280;59286;59.274;17.974;2023-07-20T06:28:23;99794.00;;;19.07;65.63
71476;BME280;59286;59.274;17.974;2023-07-20T06:30:49;99805.16;;;19.30;66.69
71476;BME280;59286;59.274;17.974;2023-07-20T06:33:15;99804.91;;;19.53;64.76
71476;BME280;59286;59.274;17.974;2023-07-20T06:35:41;99805.63;;;19.43;64.71
71476;BME280;59286;59.274;17.974;2023-07-20T06:38:08;99788.91;;;19.42;65.36
71476;BME280;59286;59.274;17.974;2023-07-20T06:40:33;99797.31;;;19.55;64.31
71476;BME280;59286;59.274;17.974;2023-07-20T06:42:58;99797.81;;;19.74;64.99
71476;BME280;59286;59.274;17.974;2023-07-20T06:45:24;99803.56;;;20.01;62.41
71476;BME280;59286;59.274;17.974;2023-07-20T06:47:49;99792.19;;;20.04;62.88
71476;BME280;59286;59.274;17.974;2023-07-20T06:50:14;99799.06;;;20.12;61.65
71476;BME280;59286;59.274;17.974;2023-07-20T06:52:40;99799.06;;;20.12;63.04
71476;BME280;59286;59.274;17.974;2023-07-20T06:55:06;99810.25;;;19.56;62.77
71476;BME280;59286;59.274;17.974;2023-07-20T06:57:32;99793.00;;;19.29;63.79
71476;BME280;59286;59.274;17.974;2023-07-20T06:59:57;99791.88;;;19.30;64.71
71476;BME280;59286;59.274;17.974;2023-07-20T07:02:23;99796.63;;;19.72;66.05
71476;BME280;59286;59.274;17.974;2023-07-20T07:04:50;99776.94;;;19.94;63.32
71476;BME280;59286;59.274;17.974;2023-07-20T07:07:16;99798.34;;;20.25;63.87
71476;BME280;59286;59.274;17.974;2023-07-20T07:09:42;99783.13;;;20.19;62.76
71476;BME280;59286;59.274;17.974;2023-07-20T07:12:08;99791.53;;;20.49;61.48
71476;BME280;59286;59.274;17.974;2023-07-20T07:14:33;99778.59;;;20.51;60.41
71476;BME280;59286;59.274;17.974;2023-07-20T07:16:59;99781.28;;;20.51;62.33
71476;BME280;59286;59.274;17.974;2023-07-20T07:19:25;99782.78;;;20.59;60.75
71476;BME280;59286;59.274;17.974;2023-07-20T07:21:50;99777.84;;;20.75;62.93
71476;BME280;59286;59.274;17.974;2023-07-20T07:24:16;99777.06;;;20.75;61.24
71476;BME280;59286;59.274;17.974;2023-07-20T07:26:41;99779.72;;;20.25;60.77
71476;BME280;59286;59.274;17.974;2023-07-20T07:29:07;99781.19;;;20.16;61.07
71476;BME280;59286;59.274;17.974;2023-07-20T07:31:34;99787.75;;;20.64;60.45
71476;BME280;59286;59.274;17.974;2023-07-20T07:34:01;99774.81;;;20.70;58.87
71476;BME280;59286;59.274;17.974;2023-07-20T07:36:26;99796.84;;;20.67;58.75
71476;BME280;59286;59.274;17.974;2023-07-20T07:38:51;99785.44;;;20.77;59.58
71476;BME280;59286;59.274;17.974;2023-07-20T07:41:17;99779.72;;;21.06;59.79
71476;BME280;59286;59.274;17.974;2023-07-20T07:43:42;99777.34;;;21.47;58.77
71476;BME280;59286;59.274;17.974;2023-07-20T07:46:07;99780.66;;;21.69;57.56
71476;BME280;59286;59.274;17.974;2023-07-20T07:48:33;99781.19;;;21.32;55.58
71476;BME280;59286;59.274;17.974;2023-07-20T07:50:58;99771.72;;;20.89;57.98
71476;BME280;59286;59.274;17.974;2023-07-20T07:53:24;99785.09;;;20.64;58.46
71476;BME280;59286;59.274;17.974;2023-07-20T07:55:51;99774.03;;;20.41;57.73
71476;BME280;59286;59.274;17.974;2023-07-20T07:58:16;99781.63;;;20.32;57.50
71476;BME280;59286;59.274;17.974;2023-07-20T08:00:42;99785.47;;;20.73;57.17
71476;BME280;59286;59.274;17.974;2023-07-20T08:03:08;99762.25;;;20.49;58.79
71476;BME280;59286;59.274;17.974;2023-07-20T08:05:37;99777.78;;;21.21;57.27
71476;BME280;59286;59.274;17.974;2023-07-20T08:08:03;99748.03;;;21.37;56.52
71476;BME280;59286;59.274;17.974;2023-07-20T08:10:31;99785.25;;;21.68;56.49
71476;BME280;59286;59.274;17.974;2023-07-20T08:12:57;99762.16;;;21.30;53.99
71476;BME280;59286;59.274;17.974;2023-07-20T08:15:22;99778.94;;;21.09;54.83
71476;BME280;59286;59.274;17.974;2023-07-20T08:17:48;99783.16;;;20.68;55.01
71476;BME280;59286;59.274;17.974;2023-07-20T08:20:14;99778.50;;;20.02;56.51
71476;BME280;59286;59.274;17.974;2023-07-20T08:22:41;99775.47;;;20.03;56.34
71476;BME280;59286;59.274;17.974;2023-07-20T08:25:07;99786.94;;;20.53;57.00
71476;BME280;59286;59.274;17.974;2023-07-20T08:27:33;99782.75;;;20.20;55.61
71476;BME280;59286;59.274;17.974;2023-07-20T08:29:58;99781.56;;;20.11;58.00
71476;BME280;59286;59.274;17.974;2023-07-20T08:32:23;99786.06;;;19.86;58.46
71476;BME280;59286;59.274;17.974;2023-07-20T08:34:49;99782.25;;;19.83;58.30
71476;BME280;59286;59.274;17.974;2023-07-20T08:37:14;99781.75;;;19.57;56.97
71476;BME280;59286;59.274;17.974;2023-07-20T08:39:39;99755.50;;;19.41;58.17
71476;BME280;59286;59.274;17.974;2023-07-20T08:42:05;99787.50;;;19.66;58.94
71476;BME280;59286;59.274;17.974;2023-07-20T08:44:35;99785.16;;;19.47;57.04
71476;BME280;59286;59.274;17.974;2023-07-20T08:47:02;99785.56;;;19.52;57.44
71476;BME280;59286;59.274;17.974;2023-07-20T08:49:29;99788.88;;;19.32;58.58
71476;BME280;59286;59.274;17.974;2023-07-20T08:51:56;99788.03;;;19.20;58.96
71476;BME280;59286;59.274;17.974;2023-07-20T08:54:23;99786.81;;;19.11;58.33
71476;BME280;59286;59.274;17.974;2023-07-20T08:56:49;99791.66;;;18.98;59.19
71476;BME280;59286;59.274;17.974;2023-07-20T08:59:16;99796.25;;;19.01;59.49
71476;BME280;59286;59.274;17.974;2023-07-20T09:01:43;99786.41;;;19.05;58.74
71476;BME280;59286;59.274;17.974;2023-07-20T09:04:10;99788.75;;;19.17;58.61
71476;BME280;59286;59.274;17.974;2023-07-20T09:06:36;99781.97;;;19.30;57.89
71476;BME280;59286;59.274;17.974;2023-07-20T09:09:01;99790.59;;;19.82;57.82
71476;BME280;59286;59.274;17.974;2023-07-20T09:11:27;99761.03;;;20.15;56.86
71476;BME280;59286;59.274;17.974;2023-07-20T09:14:09;99788.88;;;20.49;55.42
71476;BME280;59286;59.274;17.974;2023-07-20T09:16:51;99784.28;;;20.39;53.99
71476;BME280;59286;59.274;17.974;2023-07-20T09:19:17;99786.56;;;20.41;54.25
71476;BME280;59286;59.274;17.974;2023-07-20T09:21:47;99794.16;;;20.35;56.51
71476;BME280;59286;59.274;17.974;2023-07-20T09:24:13;99788.41;;;20.15;57.29
71476;BME280;59286;59.274;17.974;2023-07-20T09:26:43;99792.56;;;20.02;56.80
71476;BME280;59286;59.274;17.974;2023-07-20T09:29:09;99787.59;;;19.94;56.97
71476;BME280;59286;59.274;17.974;2023-07-20T09:31:38;99776.03;;;19.48;57.50
71476;BME280;59286;59.274;17.974;2023-07-20T09:34:05;99795.78;;;19.50;58.65
71476;BME280;59286;59.274;17.974;2023-07-20T09:36:36;99775.88;;;19.26;57.94
71476;BME280;59286;59.274;17.974;2023-07-20T09:39:02;99795.72;;;19.40;59.54
71476;BME280;59286;59.274;17.974;2023-07-20T09:41:29;99785.84;;;19.33;57.96
71476;BME280;59286;59.274;17.974;2023-07-20T09:43:54;99768.25;;;19.14;57.41
71476;BME280;59286;59.274;17.974;2023-07-20T09:46:20;99765.88;;;19.02;57.46
71476;BME280;59286;59.274;17.974;2023-07-20T09:48:54;99784.88;;;19.04;57.64
71476;BME280;59286;59.274;17.974;2023-07-20T09:51:23;99784.06;;;19.00;57.67
71476;BME280;59286;59.274;17.974;2023-07-20T09:53:52;99795.13;;;19.06;59.38
71476;BME280;59286;59.274;17.974;2023-07-20T09:56:21;99793.22;;;19.03;59.80
71476;BME280;59286;59.274;17.974;2023-07-20T09:58:47;99791.75;;;19.12;60.74
71476;BME280;59286;59.274;17.974;2023-07-20T10:01:16;99793.38;;;19.27;58.96
71476;BME280;59286;59.274;17.974;2023-07-20T10:03:45;99774.34;;;19.22;59.39
71476;BME280;59286;59.274;17.974;2023-07-20T10:06:15;99788.06;;;19.27;58.96
71476;BME280;59286;59.274;17.974;2023-07-20T10:08:47;99767.03;;;19.01;61.89
71476;BME280;59286;59.274;17.974;2023-07-20T10:11:15;99780.34;;;19.08;61.48
71476;BME280;59286;59.274;17.974;2023-07-20T10:13:43;99787.34;;;19.34;62.64
71476;BME280;59286;59.274;17.974;2023-07-20T10:16:35;99786.66;;;19.48;60.69
71476;BME280;59286;59.274;17.974;2023-07-20T10:19:13;99786.00;;;19.72;60.35
71476;BME280;59286;59.274;17.974;2023-07-20T10:21:47;99780.31;;;19.77;58.65
71476;BME280;59286;59.274;17.974;2023-07-20T10:24:14;99780.69;;;19.79;58.14
71476;BME280;59286;59.274;17.974;2023-07-20T10:26:40;99776.16;;;19.79;58.24
71476;BME280;59286;59.274;17.974;2023-07-20T10:29:05;99775.38;;;19.72;56.47
71476;BME280;59286;59.274;17.974;2023-07-20T10:31:32;99786.03;;;19.79;55.37
71476;BME280;59286;59.274;17.974;2023-07-20T10:33:57;99781.19;;;20.12;56.57
71476;BME280;59286;59.274;17.974;2023-07-20T10:36:27;99779.31;;;20.20;53.72
71476;BME280;59286;59.274;17.974;2023-07-20T10:38:54;99789.56;;;20.18;55.06
71476;BME280;59286;59.274;17.974;2023-07-20T10:41:39;99777.34;;;19.96;56.35
71476;BME280;59286;59.274;17.974;2023-07-20T10:44:08;99783.03;;;19.87;58.12
71476;BME280;59286;59.274;17.974;2023-07-20T10:46:45;99790.63;;;19.89;60.57
71476;BME280;59286;59.274;17.974;2023-07-20T10:49:12;99796.66;;;19.75;61.64
71476;BME280;59286;59.274;17.974;2023-07-20T10:51:46;99792.72;;;19.45;59.97
71476;BME280;59286;59.274;17.974;2023-07-20T10:56:41;99809.13;;;18.99;64.62
71476;BME280;59286;59.274;17.974;2023-07-20T10:59:20;99802.28;;;18.98;65.51
71476;BME280;59286;59.274;17.974;2023-07-20T11:02:06;99793.44;;;18.84;66.51
71476;BME280;59286;59.274;17.974;2023-07-20T11:04:45;99800.59;;;18.76;67.69
71476;BME280;59286;59.274;17.974;2023-07-20T11:07:15;99781.50;;;18.60;69.21
71476;BME280;59286;59.274;17.974;2023-07-20T11:09:41;99789.03;;;18.51;71.96
71476;BME280;59286;59.274;17.974;2023-07-20T11:12:12;99797.97;;;18.39;70.30
71476;BME280;59286;59.274;17.974;2023-07-20T11:14:54;99797.31;;;18.46;70.80
71476;BME280;59286;59.274;17.974;2023-07-20T11:17:29;99797.38;;;18.53;70.15
71476;BME280;59286;59.274;17.974;2023-07-20T11:19:58;99791.22;;;18.42;68.49
71476;BME280;59286;59.274;17.974;2023-07-20T11:22:26;99803.34;;;18.43;67.48
71476;BME280;59286;59.274;17.974;2023-07-20T11:24:55;99802.31;;;18.18;68.59
71476;BME280;59286;59.274;17.974;2023-07-20T11:27:20;99809.66;;;17.95;70.68
71476;BME280;59286;59.274;17.974;2023-07-20T11:29:48;99798.97;;;17.88;71.66
71476;BME280;59286;59.274;17.974;2023-07-20T11:32:20;99778.47;;;17.85;72.81
71476;BME280;59286;59.274;17.974;2023-07-20T11:34:47;99790.03;;;18.03;70.69
71476;BME280;59286;59.274;17.974;2023-07-20T11:37:13;99798.28;;;18.31;73.83
71476;BME280;59286;59.274;17.974;2023-07-20T11:39:38;99787.63;;;18.64;75.21
71476;BME280;59286;59.274;17.974;2023-07-20T11:42:05;99793.84;;;18.86;72.81
71476;BME280;59286;59.274;17.974;2023-07-20T11:44:31;99805.28;;;18.93;68.17
71476;BME280;59286;59.274;17.974;2023-07-20T11:47:00;99797.13;;;19.23;72.31
71476;BME280;59286;59.274;17.974;2023-07-20T11:49:27;99784.50;;;19.71;69.01
71476;BME280;59286;59.274;17.974;2023-07-20T11:51:52;99789.91;;;20.02;66.19
71476;BME280;59286;59.274;17.974;2023-07-20T11:54:18;99783.81;;;20.05;67.31
71476;BME280;59286;59.274;17.974;2023-07-20T11:56:43;99777.00;;;20.08;66.75
71476;BME280;59286;59.274;17.974;2023-07-20T11:59:09;99790.63;;;19.96;63.33
71476;BME280;59286;59.274;17.974;2023-07-20T12:01:34;99795.84;;;19.68;65.06
71476;BME280;59286;59.274;17.974;2023-07-20T12:04:02;99787.44;;;19.52;63.52
71476;BME280;59286;59.274;17.974;2023-07-20T12:06:29;99798.94;;;19.77;66.61
71476;BME280;59286;59.274;17.974;2023-07-20T12:08:58;99796.72;;;19.86;64.28
71476;BME280;59286;59.274;17.974;2023-07-20T12:11:34;99789.03;;;19.70;61.07
71476;BME280;59286;59.274;17.974;2023-07-20T12:14:00;99791.28;;;19.58;63.82
71476;BME280;59286;59.274;17.974;2023-07-20T12:16:29;99795.88;;;19.71;63.73
71476;BME280;59286;59.274;17.974;2023-07-20T12:19:07;99793.66;;;19.84;65.50
71476;BME280;59286;59.274;17.974;2023-07-20T12:21:37;99799.00;;;19.91;63.69
71476;BME280;59286;59.274;17.974;2023-07-20T12:24:04;99799.00;;;19.91;60.25
71476;BME280;59286;59.274;17.974;2023-07-20T12:26:30;99795.88;;;19.71;59.49
71476;BME280;59286;59.274;17.974;2023-07-20T12:28:56;99783.28;;;19.54;60.93
71476;BME280;59286;59.274;17.974;2023-07-20T12:31:22;99797.28;;;19.48;60.89
71476;BME280;59286;59.274;17.974;2023-07-20T12:33:50;99796.88;;;19.39;61.01
71476;BME280;59286;59.274;17.974;2023-07-20T12:36:15;99806.34;;;19.36;62.08
71476;BME280;59286;59.274;17.974;2023-07-20T12:38:41;99802.97;;;19.39;63.96
71476;BME280;59286;59.274;17.974;2023-07-20T12:41:07;99802.25;;;19.56;63.96
71476;BME280;59286;59.274;17.974;2023-07-20T12:43:33;99800.06;;;19.76;65.09
71476;BME280;59286;59.274;17.974;2023-07-20T12:45:59;99799.00;;;19.94;63.02
71476;BME280;59286;59.274;17.974;2023-07-20T12:48:24;99795.19;;;19.92;60.86
71476;BME280;59286;59.274;17.974;2023-07-20T12:50:50;99799.03;;;20.05;61.44
71476;BME280;59286;59.274;17.974;2023-07-20T12:53:16;99801.75;;;20.19;62.50
71476;BME280;59286;59.274;17.974;2023-07-20T12:55:42;99771.69;;;20.08;60.90
71476;BME280;59286;59.274;17.974;2023-07-20T12:58:08;99797.25;;;20.51;59.29
71476;BME280;59286;59.274;17.974;2023-07-20T13:00:34;99801.41;;;20.59;58.74